createdAt,value
2019-06-27T00:00:10.362Z,21.43
2019-06-27T00:01:10.366Z,21.39
2019-06-27T00:02:10.370Z,21.40
2019-06-27T00:03:10.367Z,21.30
2019-06-27T00:04:10.385Z,21.12
2019-06-27T00:05:10.376Z,21.07
2019-06-27T00:06:10.372Z,21.17
2019-06-27T00:07:10.373Z,21.05
2019-06-27T00:08:10.376Z,20.99
2019-06-27T00:09:10.378Z,21.03
2019-06-27T00:10:10.377Z,21.00
2019-06-27T00:11:10.426Z,21.00
2019-06-27T00:12:10.385Z,20.90
2019-06-27T00:13:10.384Z,20.92
2019-06-27T00:14:10.382Z,20.92
2019-06-27T00:15:10.386Z,20.93
2019-06-27T00:16:10.387Z,20.80
2019-06-27T00:17:10.390Z,20.78
2019-06-27T00:18:10.386Z,20.74
2019-06-27T00:19:10.391Z,20.69
2019-06-27T00:20:10.388Z,20.59
2019-06-27T00:21:10.389Z,20.47
2019-06-27T00:22:10.396Z,20.52
2019-06-27T00:23:10.387Z,20.50
2019-06-27T00:24:10.390Z,20.48
2019-06-27T00:25:10.395Z,20.43
2019-06-27T00:26:10.391Z,20.51
2019-06-27T00:27:10.402Z,20.39
2019-06-27T00:28:10.404Z,20.31
2019-06-27T00:29:10.396Z,20.36
2019-06-27T00:30:10.393Z,20.25
2019-06-27T00:31:10.396Z,20.28
2019-06-27T00:32:10.397Z,20.22
2019-06-27T00:33:10.402Z,20.21
2019-06-27T00:34:10.399Z,20.14
2019-06-27T00:35:10.398Z,20.00
2019-06-27T00:36:10.400Z,20.02
2019-06-27T00:37:10.406Z,20.02
2019-06-27T00:38:10.401Z,19.96
2019-06-27T00:39:10.399Z,19.96
2019-06-27T00:40:10.400Z,19.92
2019-06-27T00:41:10.403Z,19.96
2019-06-27T00:42:10.399Z,19.86
2019-06-27T00:43:10.403Z,19.84
2019-06-27T00:44:10.401Z,19.81
2019-06-27T00:45:10.581Z,19.81
2019-06-27T00:46:10.405Z,19.74
2019-06-27T00:47:10.402Z,19.66
2019-06-27T00:48:10.405Z,19.70
2019-06-27T00:49:10.399Z,19.62
2019-06-27T00:50:10.406Z,19.63
2019-06-27T00:51:10.405Z,19.59
2019-06-27T00:52:10.407Z,19.54
2019-06-27T00:53:10.407Z,19.55
2019-06-27T00:54:10.402Z,19.49
2019-06-27T00:55:10.404Z,19.37
2019-06-27T00:56:10.406Z,19.34
2019-06-27T00:57:14.552Z,19.33
2019-06-27T00:58:10.409Z,19.39
2019-06-27T00:59:10.403Z,19.30
2019-06-27T01:00:10.430Z,19.30
2019-06-27T01:01:10.420Z,19.22
2019-06-27T01:02:10.421Z,19.24
2019-06-27T01:03:10.408Z,19.14
2019-06-27T01:04:10.410Z,19.21
2019-06-27T01:05:10.408Z,19.21
2019-06-27T01:06:10.406Z,19.12
2019-06-27T01:07:10.404Z,19.12
2019-06-27T01:08:10.413Z,19.07
2019-06-27T01:09:10.404Z,19.09
2019-06-27T01:10:10.411Z,19.11
2019-06-27T01:11:10.406Z,19.09
2019-06-27T01:12:10.403Z,19.08
2019-06-27T01:13:10.406Z,19.09
2019-06-27T01:14:10.404Z,19.11
2019-06-27T01:15:10.401Z,19.02
2019-06-27T01:16:10.406Z,19.04
2019-06-27T01:17:10.413Z,19.04
2019-06-27T01:18:10.404Z,19.00
2019-06-27T01:19:10.408Z,19.02
2019-06-27T01:20:10.409Z,18.98
2019-06-27T01:21:10.409Z,18.98
2019-06-27T01:22:10.403Z,18.93
2019-06-27T01:23:10.409Z,18.99
2019-06-27T01:24:10.419Z,18.99
2019-06-27T01:25:10.405Z,19.04
2019-06-27T01:26:10.403Z,18.86
2019-06-27T01:27:10.405Z,18.86
2019-06-27T01:28:10.403Z,18.86
2019-06-27T01:29:10.406Z,18.90
2019-06-27T01:30:10.399Z,18.84
2019-06-27T01:31:10.422Z,18.90
2019-06-27T01:32:10.403Z,18.92
2019-06-27T01:33:10.400Z,18.84
2019-06-27T01:34:10.399Z,18.84
2019-06-27T01:35:10.404Z,18.89
2019-06-27T01:36:10.413Z,18.86
2019-06-27T01:37:10.402Z,18.98
2019-06-27T01:38:10.400Z,18.90
2019-06-27T01:39:10.401Z,18.88
2019-06-27T01:40:10.403Z,18.92
2019-06-27T01:41:10.405Z,18.88
2019-06-27T01:42:10.399Z,18.84
2019-06-27T01:43:10.398Z,18.88
2019-06-27T01:44:10.399Z,18.84
2019-06-27T01:45:10.400Z,18.78
2019-06-27T01:46:10.397Z,18.77
2019-06-27T01:47:10.397Z,18.80
2019-06-27T01:48:10.399Z,18.75
2019-06-27T01:49:10.395Z,18.78
2019-06-27T01:50:10.400Z,18.78
2019-06-27T01:51:10.399Z,18.73
2019-06-27T01:52:10.396Z,18.74
2019-06-27T01:53:10.393Z,18.77
2019-06-27T01:54:10.390Z,18.80
2019-06-27T01:55:10.391Z,18.73
2019-06-27T01:56:10.399Z,18.66
2019-06-27T01:57:10.390Z,18.81
2019-06-27T01:58:10.388Z,18.81
2019-06-27T01:59:10.390Z,18.71
2019-06-27T02:00:10.394Z,18.71
2019-06-27T02:01:10.396Z,18.71
2019-06-27T02:02:10.387Z,18.63
2019-06-27T02:03:10.391Z,18.68
2019-06-27T02:04:10.400Z,18.71
2019-06-27T02:05:10.387Z,18.75
2019-06-27T02:06:10.386Z,18.63
2019-06-27T02:07:10.384Z,18.71
2019-06-27T02:08:10.393Z,18.58
2019-06-27T02:09:10.387Z,18.60
2019-06-27T02:10:10.385Z,18.58
2019-06-27T02:11:10.391Z,18.53
2019-06-27T02:12:10.384Z,18.63
2019-06-27T02:13:10.382Z,18.58
2019-06-27T02:14:10.380Z,18.58
2019-06-27T02:15:10.385Z,18.58
2019-06-27T02:16:10.382Z,18.47
2019-06-27T02:17:10.386Z,18.40
2019-06-27T02:18:10.372Z,18.37
2019-06-27T02:19:10.404Z,18.29
2019-06-27T02:20:10.378Z,18.22
2019-06-27T02:21:10.378Z,18.13
2019-06-27T02:22:10.374Z,18.18
2019-06-27T02:23:10.376Z,18.19
2019-06-27T02:24:10.376Z,18.20
2019-06-27T02:25:10.375Z,18.16
2019-06-27T02:26:10.385Z,18.15
2019-06-27T02:27:10.370Z,18.01
2019-06-27T02:28:10.374Z,18.03
2019-06-27T02:29:10.369Z,17.90
2019-06-27T02:30:10.374Z,17.92
2019-06-27T02:31:10.373Z,17.85
2019-06-27T02:32:10.374Z,17.80
2019-06-27T02:33:10.373Z,17.79
2019-06-27T02:34:10.368Z,17.82
2019-06-27T02:35:10.395Z,17.70
2019-06-27T02:36:10.367Z,17.74
2019-06-27T02:37:10.411Z,17.76
2019-06-27T02:38:10.366Z,17.70
2019-06-27T02:39:10.365Z,17.68
2019-06-27T02:40:10.367Z,17.74
2019-06-27T02:41:10.362Z,17.71
2019-06-27T02:42:10.365Z,17.72
2019-06-27T02:43:10.382Z,17.72
2019-06-27T02:44:10.362Z,17.76
2019-06-27T02:45:10.363Z,17.85
2019-06-27T02:46:10.359Z,17.85
2019-06-27T02:47:10.364Z,17.87
2019-06-27T02:48:10.362Z,17.98
2019-06-27T02:49:10.356Z,17.94
2019-06-27T02:50:10.470Z,17.89
2019-06-27T02:51:10.351Z,17.90
2019-06-27T02:52:10.347Z,17.94
2019-06-27T02:53:10.360Z,17.87
2019-06-27T02:54:10.347Z,17.92
2019-06-27T02:55:10.353Z,17.86
2019-06-27T02:56:10.350Z,17.89
2019-06-27T02:57:10.348Z,17.87
2019-06-27T02:58:28.837Z,17.92
2019-06-27T02:59:10.348Z,17.89
2019-06-27T03:00:10.349Z,17.90
2019-06-27T03:01:10.343Z,18.00
2019-06-27T03:02:10.340Z,17.89
2019-06-27T03:03:10.340Z,17.95
2019-06-27T03:04:10.337Z,18.00
2019-06-27T03:05:10.349Z,17.92
2019-06-27T03:06:10.342Z,17.95
2019-06-27T03:07:10.337Z,17.92
2019-06-27T03:08:10.335Z,17.94
2019-06-27T03:09:10.345Z,17.98
2019-06-27T03:10:10.333Z,17.95
2019-06-27T03:11:10.332Z,18.00
2019-06-27T03:12:10.337Z,17.97
2019-06-27T03:13:10.331Z,17.98
2019-06-27T03:14:10.335Z,18.01
2019-06-27T03:15:10.353Z,17.92
2019-06-27T03:16:10.325Z,17.94
2019-06-27T03:17:10.340Z,18.03
2019-06-27T03:18:10.321Z,17.97
2019-06-27T03:19:10.322Z,17.98
2019-06-27T03:20:10.343Z,17.94
2019-06-27T03:21:10.324Z,17.97
2019-06-27T03:22:10.319Z,17.97
2019-06-27T03:23:10.323Z,17.89
2019-06-27T03:24:10.323Z,17.79
2019-06-27T03:25:10.319Z,17.78
2019-06-27T03:26:10.318Z,17.72
2019-06-27T03:27:10.315Z,17.76
2019-06-27T03:28:10.314Z,17.76
2019-06-27T03:29:10.323Z,17.80
2019-06-27T03:30:10.315Z,17.82
2019-06-27T03:31:10.349Z,17.94
2019-06-27T03:32:10.340Z,18.44
2019-06-27T03:33:10.312Z,18.81
2019-06-27T03:34:10.309Z,19.12
2019-06-27T03:35:10.319Z,19.37
2019-06-27T03:36:10.310Z,19.36
2019-06-27T03:37:10.310Z,19.36
2019-06-27T03:38:10.313Z,19.41
2019-06-27T03:39:10.306Z,19.19
2019-06-27T03:40:10.300Z,19.51
2019-06-27T03:41:10.327Z,19.66
2019-06-27T03:42:10.296Z,19.79
2019-06-27T03:43:10.297Z,19.77
2019-06-27T03:44:10.295Z,19.47
2019-06-27T03:45:15.037Z,19.33
2019-06-27T03:46:10.296Z,19.37
2019-06-27T03:47:10.293Z,19.45
2019-06-27T03:48:10.295Z,19.86
2019-06-27T03:49:10.307Z,20.03
2019-06-27T03:50:10.296Z,19.39
2019-06-27T03:51:10.291Z,19.12
2019-06-27T03:52:10.292Z,18.90
2019-06-27T03:53:10.293Z,18.71
2019-06-27T03:54:10.287Z,18.68
2019-06-27T03:55:10.291Z,18.53
2019-06-27T03:56:10.289Z,18.34
2019-06-27T03:57:10.285Z,18.16
2019-06-27T03:58:10.285Z,17.94
2019-06-27T03:59:12.817Z,17.74
2019-06-27T04:00:10.432Z,17.65
2019-06-27T04:01:10.283Z,17.59
2019-06-27T04:02:10.282Z,17.49
2019-06-27T04:03:10.305Z,17.51
2019-06-27T04:04:10.301Z,17.44
2019-06-27T04:05:10.282Z,17.27
2019-06-27T04:06:10.284Z,17.16
2019-06-27T04:07:10.280Z,17.27
2019-06-27T04:08:10.278Z,18.19
2019-06-27T04:09:10.275Z,18.90
2019-06-27T04:10:10.276Z,19.40
2019-06-27T04:11:10.286Z,19.92
2019-06-27T04:12:10.270Z,20.26
2019-06-27T04:13:10.274Z,20.36
2019-06-27T04:14:10.280Z,20.51
2019-06-27T04:15:10.298Z,20.80
2019-06-27T04:16:10.269Z,21.02
2019-06-27T04:17:10.286Z,21.24
2019-06-27T04:18:10.266Z,21.43
2019-06-27T04:19:10.267Z,21.62
2019-06-27T04:20:10.273Z,20.97
2019-06-27T04:21:10.265Z,21.14
2019-06-27T04:22:10.267Z,21.06
2019-06-27T04:23:10.260Z,21.51
2019-06-27T04:24:10.265Z,21.85
2019-06-27T04:25:10.263Z,22.29
2019-06-27T04:26:10.260Z,21.57
2019-06-27T04:27:10.266Z,21.00
2019-06-27T04:28:10.294Z,20.85
2019-06-27T04:29:10.265Z,20.39
2019-06-27T04:30:10.270Z,19.71
2019-06-27T04:31:10.259Z,19.14
2019-06-27T04:32:10.269Z,18.74
2019-06-27T04:33:10.259Z,18.90
2019-06-27T04:34:10.255Z,19.95
2019-06-27T04:35:10.269Z,20.40
2019-06-27T04:36:10.274Z,20.90
2019-06-27T04:37:10.261Z,20.67
2019-06-27T04:38:10.263Z,20.58
2019-06-27T04:39:10.252Z,20.72
2019-06-27T04:40:10.259Z,19.84
2019-06-27T04:41:10.263Z,19.29
2019-06-27T04:42:10.253Z,19.34
2019-06-27T04:43:10.257Z,19.02
2019-06-27T04:44:10.253Z,19.24
2019-06-27T04:45:10.266Z,19.56
2019-06-27T04:46:10.252Z,20.10
2019-06-27T04:47:10.258Z,20.28
2019-06-27T04:48:10.254Z,20.58
2019-06-27T04:49:13.393Z,20.39
2019-06-27T04:50:10.253Z,20.55
2019-06-27T04:51:10.250Z,21.24
2019-06-27T04:52:10.253Z,21.72
2019-06-27T04:53:10.247Z,20.77
2019-06-27T04:54:10.250Z,21.51
2019-06-27T04:55:10.254Z,22.35
2019-06-27T04:56:10.248Z,23.23
2019-06-27T04:57:10.250Z,22.94
2019-06-27T04:58:10.251Z,22.44
2019-06-27T04:59:10.249Z,22.65
2019-06-27T05:00:10.247Z,22.10
2019-06-27T05:01:10.251Z,22.33
2019-06-27T05:02:10.248Z,22.36
2019-06-27T05:03:10.249Z,22.25
2019-06-27T05:04:10.251Z,22.91
2019-06-27T05:05:10.249Z,22.08
2019-06-27T05:06:10.325Z,21.89
2019-06-27T05:07:10.252Z,22.29
2019-06-27T05:08:14.380Z,22.41
2019-06-27T05:09:10.250Z,22.23
2019-06-27T05:10:10.251Z,22.93
2019-06-27T05:11:10.250Z,22.33
2019-06-27T05:12:10.249Z,22.45
2019-06-27T05:13:10.249Z,22.59
2019-06-27T05:14:10.247Z,22.69
2019-06-27T05:15:10.253Z,22.99
2019-06-27T05:16:10.258Z,23.21
2019-06-27T05:17:10.251Z,23.05
2019-06-27T05:18:10.254Z,23.37
2019-06-27T05:19:10.252Z,23.18
2019-06-27T05:20:10.257Z,23.08
2019-06-27T05:21:10.252Z,23.18
2019-06-27T05:22:10.255Z,23.25
2019-06-27T05:23:10.308Z,23.20
2019-06-27T05:24:10.254Z,23.56
2019-06-27T05:25:10.254Z,23.87
2019-06-27T05:26:10.255Z,23.77
2019-06-27T05:27:10.254Z,23.88
2019-06-27T05:28:10.256Z,24.53
2019-06-27T05:29:10.259Z,24.96
2019-06-27T05:30:10.669Z,25.32
2019-06-27T05:31:10.262Z,25.38
2019-06-27T05:32:10.288Z,25.85
2019-06-27T05:33:10.261Z,26.31
2019-06-27T05:34:10.266Z,26.59
2019-06-27T05:35:10.338Z,26.10
2019-06-27T05:36:10.579Z,25.85
2019-06-27T05:37:10.264Z,25.46
2019-06-27T05:38:10.267Z,25.83
2019-06-27T05:39:10.263Z,26.15
2019-06-27T05:40:10.261Z,26.15
2019-06-27T05:41:10.282Z,26.00
2019-06-27T05:42:10.270Z,25.51
2019-06-27T05:43:10.272Z,26.23
2019-06-27T05:44:10.285Z,25.22
2019-06-27T05:45:10.270Z,24.42
2019-06-27T05:46:10.273Z,23.61
2019-06-27T05:47:10.274Z,23.86
2019-06-27T05:48:10.279Z,24.43
2019-06-27T05:49:10.287Z,24.68
2019-06-27T05:50:10.282Z,24.14
2019-06-27T05:51:10.283Z,23.13
2019-06-27T05:52:10.288Z,22.63
2019-06-27T05:53:10.301Z,21.85
2019-06-27T05:54:10.289Z,22.55
2019-06-27T05:55:10.291Z,22.76
2019-06-27T05:56:10.291Z,23.02
2019-06-27T05:57:10.299Z,23.61
2019-06-27T05:58:10.295Z,24.36
2019-06-27T05:59:10.300Z,24.36
2019-06-27T06:00:26.838Z,24.39
2019-06-27T06:01:10.344Z,24.39
2019-06-27T06:02:10.315Z,24.20
2019-06-27T06:03:10.303Z,23.91
2019-06-27T06:04:10.307Z,23.78
2019-06-27T06:05:10.324Z,24.55
2019-06-27T06:06:10.312Z,24.43
2019-06-27T06:07:10.313Z,25.17
2019-06-27T06:08:10.311Z,25.33
2019-06-27T06:09:10.314Z,25.35
2019-06-27T06:10:10.316Z,25.03
2019-06-27T06:11:10.320Z,25.29
2019-06-27T06:12:10.326Z,25.69
2019-06-27T06:13:10.325Z,26.34
2019-06-27T06:14:10.321Z,25.38
2019-06-27T06:15:10.326Z,26.15
2019-06-27T06:16:10.330Z,26.10
2019-06-27T06:17:10.330Z,25.66
2019-06-27T06:18:10.335Z,25.54
2019-06-27T06:19:10.333Z,25.68
2019-06-27T06:20:10.337Z,26.16
2019-06-27T06:21:10.337Z,25.66
2019-06-27T06:22:10.365Z,25.85
2019-06-27T06:23:10.346Z,24.99
2019-06-27T06:24:10.347Z,23.80
2019-06-27T06:25:10.356Z,23.80
2019-06-27T06:26:10.359Z,24.32
2019-06-27T06:27:10.348Z,25.43
2019-06-27T06:28:10.358Z,26.02
2019-06-27T06:29:10.364Z,26.48
2019-06-27T06:30:10.363Z,26.63
2019-06-27T06:31:11.221Z,27.21
2019-06-27T06:32:10.374Z,27.18
2019-06-27T06:33:10.394Z,27.82
2019-06-27T06:34:10.376Z,27.22
2019-06-27T06:35:10.380Z,26.97
2019-06-27T06:36:10.392Z,26.78
2019-06-27T06:37:10.395Z,27.35
2019-06-27T06:38:10.388Z,27.37
2019-06-27T06:39:10.395Z,26.56
2019-06-27T06:40:10.400Z,25.68
2019-06-27T06:41:10.397Z,26.07
2019-06-27T06:42:10.410Z,26.52
2019-06-27T06:43:10.406Z,25.93
2019-06-27T06:44:10.409Z,26.13
2019-06-27T06:45:10.410Z,25.95
2019-06-27T06:46:10.413Z,26.21
2019-06-27T06:47:10.441Z,25.99
2019-06-27T06:48:10.425Z,25.85
2019-06-27T06:49:10.430Z,26.10
2019-06-27T06:50:10.431Z,26.07
2019-06-27T06:51:10.434Z,25.54
2019-06-27T06:52:10.441Z,25.96
2019-06-27T06:53:10.447Z,25.31
2019-06-27T06:54:10.449Z,25.06
2019-06-27T06:55:10.448Z,25.23
2019-06-27T06:56:10.451Z,25.60
2019-06-27T06:57:10.462Z,25.58
2019-06-27T06:58:10.461Z,26.16
2019-06-27T06:59:10.463Z,26.45
2019-06-27T07:00:10.487Z,26.65
2019-06-27T07:01:10.477Z,26.31
2019-06-27T07:02:10.474Z,26.26
2019-06-27T07:03:10.480Z,26.83
2019-06-27T07:04:10.526Z,27.37
2019-06-27T07:05:10.489Z,27.78
2019-06-27T07:06:10.485Z,26.90
2019-06-27T07:07:13.163Z,26.70
2019-06-27T07:08:10.500Z,26.28
2019-06-27T07:09:10.520Z,25.83
2019-06-27T07:10:10.499Z,25.69
2019-06-27T07:11:10.510Z,25.72
2019-06-27T07:12:10.517Z,25.99
2019-06-27T07:13:10.512Z,25.33
2019-06-27T07:14:10.518Z,25.08
2019-06-27T07:15:10.521Z,25.55
2019-06-27T07:16:10.523Z,25.73
2019-06-27T07:17:10.529Z,25.95
2019-06-27T07:18:10.531Z,26.18
2019-06-27T07:19:10.532Z,26.23
2019-06-27T07:20:10.547Z,26.65
2019-06-27T07:21:10.543Z,26.22
2019-06-27T07:22:10.568Z,26.52
2019-06-27T07:23:10.577Z,26.53
2019-06-27T07:24:10.557Z,26.38
2019-06-27T07:25:10.556Z,26.66
2019-06-27T07:26:10.560Z,27.42
2019-06-27T07:27:10.569Z,28.01
2019-06-27T07:28:10.570Z,28.10
2019-06-27T07:29:10.596Z,28.67
2019-06-27T07:30:10.583Z,29.38
2019-06-27T07:31:17.765Z,28.79
2019-06-27T07:32:10.585Z,28.85
2019-06-27T07:33:10.595Z,29.39
2019-06-27T07:34:10.593Z,28.56
2019-06-27T07:35:10.605Z,28.52
2019-06-27T07:36:10.599Z,28.37
2019-06-27T07:37:10.609Z,27.55
2019-06-27T07:38:10.614Z,27.64
2019-06-27T07:39:10.624Z,27.74
2019-06-27T07:40:10.621Z,27.73
2019-06-27T07:41:10.627Z,28.01
2019-06-27T07:42:10.641Z,27.75
2019-06-27T07:43:10.638Z,27.67
2019-06-27T07:44:10.637Z,27.71
2019-06-27T07:45:10.642Z,27.05
2019-06-27T07:46:24.022Z,26.68
2019-06-27T07:47:10.653Z,26.44
2019-06-27T07:48:10.658Z,26.60
2019-06-27T07:49:10.672Z,26.58
2019-06-27T07:50:10.670Z,27.07
2019-06-27T07:51:10.670Z,27.39
2019-06-27T07:52:10.675Z,27.32
2019-06-27T07:53:10.709Z,27.45
2019-06-27T07:54:10.687Z,27.22
2019-06-27T07:55:10.694Z,27.17
2019-06-27T07:56:10.698Z,28.00
2019-06-27T07:57:10.708Z,28.78
2019-06-27T07:58:10.708Z,29.49
2019-06-27T07:59:10.715Z,29.97
2019-06-27T08:00:10.719Z,29.72
2019-06-27T08:01:10.725Z,29.98
2019-06-27T08:02:10.728Z,30.69
2019-06-27T08:03:10.734Z,30.85
2019-06-27T08:04:10.743Z,30.92
2019-06-27T08:05:10.751Z,29.73
2019-06-27T08:06:10.765Z,29.42
2019-06-27T08:07:10.752Z,28.38
2019-06-27T08:08:10.761Z,29.01
2019-06-27T08:09:10.770Z,28.41
2019-06-27T08:10:10.775Z,29.07
2019-06-27T08:11:10.784Z,29.27
2019-06-27T08:12:10.804Z,29.81
2019-06-27T08:13:10.795Z,30.54
2019-06-27T08:14:10.792Z,29.63
2019-06-27T08:15:10.807Z,29.76
2019-06-27T08:16:10.806Z,29.90
2019-06-27T08:17:10.813Z,29.84
2019-06-27T08:18:10.818Z,30.08
2019-06-27T08:19:10.826Z,30.62
2019-06-27T08:20:10.832Z,30.85
2019-06-27T08:21:10.838Z,29.93
2019-06-27T08:22:10.845Z,30.02
2019-06-27T08:23:10.854Z,29.44
2019-06-27T08:24:10.861Z,29.39
2019-06-27T08:25:10.864Z,28.81
2019-06-27T08:26:10.888Z,28.60
2019-06-27T08:27:10.879Z,28.51
2019-06-27T08:28:10.889Z,28.23
2019-06-27T08:29:10.897Z,27.65
2019-06-27T08:30:10.903Z,27.85
2019-06-27T08:31:10.989Z,27.73
2019-06-27T08:32:10.911Z,27.65
2019-06-27T08:33:10.918Z,28.29
2019-06-27T08:34:10.925Z,28.54
2019-06-27T08:35:10.932Z,28.75
2019-06-27T08:36:10.949Z,29.75
2019-06-27T08:37:10.946Z,30.59
2019-06-27T08:38:10.953Z,31.05
2019-06-27T08:39:10.958Z,30.61
2019-06-27T08:40:10.965Z,29.98
2019-06-27T08:41:13.962Z,30.39
2019-06-27T08:42:10.979Z,29.35
2019-06-27T08:43:10.987Z,28.59
2019-06-27T08:44:10.995Z,28.39
2019-06-27T08:45:11.002Z,27.98
2019-06-27T08:46:11.008Z,28.33
2019-06-27T08:47:11.016Z,29.22
2019-06-27T08:48:11.023Z,30.13
2019-06-27T08:49:11.036Z,30.55
2019-06-27T08:50:11.055Z,30.70
2019-06-27T08:51:11.045Z,31.31
2019-06-27T08:52:11.053Z,31.31
2019-06-27T08:53:11.066Z,30.57
2019-06-27T08:54:11.071Z,29.76
2019-06-27T08:55:11.077Z,28.66
2019-06-27T08:56:11.083Z,28.00
2019-06-27T08:57:11.090Z,28.23
2019-06-27T08:58:11.099Z,28.02
2019-06-27T08:59:11.108Z,27.67
2019-06-27T09:00:11.116Z,27.20
2019-06-27T09:01:11.123Z,27.47
2019-06-27T09:02:11.133Z,27.51
2019-06-27T09:03:11.145Z,27.75
2019-06-27T09:04:11.152Z,28.42
2019-06-27T09:05:11.152Z,28.11
2019-06-27T09:06:11.159Z,28.26
2019-06-27T09:07:11.171Z,28.42
2019-06-27T09:08:11.171Z,27.80
2019-06-27T09:09:11.180Z,27.78
2019-06-27T09:10:11.183Z,27.18
2019-06-27T09:11:11.192Z,26.23
2019-06-27T09:12:11.192Z,25.96
2019-06-27T09:13:11.203Z,25.72
2019-06-27T09:14:11.220Z,25.13
2019-06-27T09:15:11.215Z,24.43
2019-06-27T09:16:11.213Z,24.13
2019-06-27T09:17:11.215Z,23.88
2019-06-27T09:18:11.224Z,23.69
2019-06-27T09:19:11.225Z,23.76
2019-06-27T09:20:11.248Z,23.68
2019-06-27T09:21:11.235Z,23.47
2019-06-27T09:22:11.241Z,23.59
2019-06-27T09:23:11.239Z,23.37
2019-06-27T09:24:11.245Z,23.20
2019-06-27T09:25:11.248Z,23.06
2019-06-27T09:26:11.274Z,23.06
2019-06-27T09:27:11.257Z,23.12
2019-06-27T09:28:11.254Z,23.06
2019-06-27T09:29:11.272Z,23.17
2019-06-27T09:30:11.266Z,22.96
2019-06-27T09:31:11.364Z,22.94
2019-06-27T09:32:24.801Z,22.84
2019-06-27T09:33:11.270Z,22.73
2019-06-27T09:34:11.279Z,22.66
2019-06-27T09:35:11.274Z,22.83
2019-06-27T09:36:11.279Z,22.84
2019-06-27T09:37:11.288Z,22.81
2019-06-27T09:38:11.281Z,22.96
2019-06-27T09:39:11.288Z,22.84
2019-06-27T09:40:11.286Z,22.81
2019-06-27T09:41:11.310Z,22.70
2019-06-27T09:42:11.291Z,22.59
2019-06-27T09:43:11.294Z,22.66
2019-06-27T09:44:11.289Z,22.63
2019-06-27T09:45:11.295Z,22.63
2019-06-27T09:46:11.320Z,22.54
2019-06-27T09:47:11.308Z,22.75
2019-06-27T09:48:11.301Z,22.73
2019-06-27T09:49:11.309Z,22.60
2019-06-27T09:50:11.306Z,22.63
2019-06-27T09:51:11.306Z,22.53
2019-06-27T09:52:11.312Z,22.39
2019-06-27T09:53:11.318Z,22.35
2019-06-27T09:54:11.317Z,22.36
2019-06-27T09:55:11.348Z,22.32
2019-06-27T09:56:11.321Z,22.48
2019-06-27T09:57:11.322Z,22.63
2019-06-27T09:58:11.330Z,22.55
2019-06-27T09:59:11.327Z,22.66
2019-06-27T10:00:11.328Z,22.63
2019-06-27T10:01:11.331Z,22.76
2019-06-27T10:02:11.326Z,22.75
2019-06-27T10:03:11.332Z,22.83
2019-06-27T10:04:11.329Z,22.81
2019-06-27T10:05:11.337Z,22.66
2019-06-27T10:06:11.336Z,22.62
2019-06-27T10:07:11.339Z,22.65
2019-06-27T10:08:11.359Z,22.78
2019-06-27T10:09:11.381Z,22.80
2019-06-27T10:10:11.344Z,22.68
2019-06-27T10:11:11.357Z,22.55
2019-06-27T10:12:11.350Z,22.54
2019-06-27T10:13:11.345Z,22.62
2019-06-27T10:14:11.349Z,22.78
2019-06-27T10:15:11.351Z,22.91
2019-06-27T10:16:11.357Z,22.84
2019-06-27T10:17:11.358Z,22.75
2019-06-27T10:18:11.355Z,22.70
2019-06-27T10:19:11.360Z,22.70
2019-06-27T10:20:11.361Z,22.62
2019-06-27T10:21:11.362Z,22.78
2019-06-27T10:22:11.360Z,22.81
2019-06-27T10:23:11.366Z,22.88
2019-06-27T10:24:11.367Z,22.96
2019-06-27T10:25:11.363Z,23.03
2019-06-27T10:26:11.367Z,22.93
2019-06-27T10:27:11.583Z,23.05
2019-06-27T10:28:11.378Z,22.93
2019-06-27T10:29:11.381Z,22.96
2019-06-27T10:30:11.372Z,22.81
2019-06-27T10:31:11.376Z,22.70
2019-06-27T10:32:11.380Z,22.70
2019-06-27T10:33:11.378Z,22.73
2019-06-27T10:34:11.377Z,22.59
2019-06-27T10:35:11.381Z,22.53
2019-06-27T10:36:11.386Z,22.66
2019-06-27T10:37:11.384Z,22.68
2019-06-27T10:38:11.399Z,22.68
2019-06-27T10:39:11.388Z,22.80
2019-06-27T10:40:11.399Z,22.94
2019-06-27T10:41:11.392Z,23.02
2019-06-27T10:42:11.391Z,23.08
2019-06-27T10:43:11.395Z,23.17
2019-06-27T10:44:11.391Z,23.21
2019-06-27T10:45:11.398Z,23.25
2019-06-27T10:46:11.402Z,22.90
2019-06-27T10:47:11.405Z,22.91
2019-06-27T10:48:11.401Z,22.98
2019-06-27T10:49:11.403Z,22.98
2019-06-27T10:50:11.411Z,22.90
2019-06-27T10:51:11.410Z,22.69
2019-06-27T10:52:11.407Z,22.83
2019-06-27T10:53:11.407Z,22.87
2019-06-27T10:54:11.411Z,22.81
2019-06-27T10:55:11.413Z,22.85
2019-06-27T10:56:11.413Z,23.10
2019-06-27T10:57:11.410Z,23.25
2019-06-27T10:58:11.413Z,23.31
2019-06-27T10:59:11.416Z,23.46
2019-06-27T11:01:11.508Z,23.36
2019-06-27T11:04:12.374Z,23.40
2019-06-27T11:06:11.723Z,23.54
2019-06-27T11:07:11.851Z,23.61
2019-06-27T11:08:11.708Z,23.68
2019-06-27T11:10:12.627Z,23.71
2019-06-27T11:11:11.952Z,23.71
2019-06-27T11:12:12.480Z,23.65
2019-06-27T11:13:12.866Z,23.74
2019-06-27T11:15:12.733Z,23.87
2019-06-27T11:22:12.294Z,23.88
2019-06-27T11:23:13.010Z,23.87
2019-06-27T11:25:12.039Z,23.92
2019-06-27T11:27:14.374Z,24.01
2019-06-27T11:28:11.644Z,23.95
2019-06-27T11:34:05.835Z,24.02
2019-06-27T11:35:59.317Z,24.02
2019-06-27T11:40:37.434Z,23.87
2019-06-27T11:41:28.974Z,23.96
2019-06-27T11:44:53.029Z,23.88
2019-06-27T11:46:54.574Z,24.01
2019-06-27T11:47:52.748Z,23.86
2019-06-27T11:48:53.021Z,23.86
2019-06-27T11:51:53.330Z,24.24
2019-06-27T11:52:52.751Z,24.47
2019-06-27T11:54:53.204Z,24.29
2019-06-27T11:56:53.661Z,24.38
2019-06-27T12:00:32.937Z,24.42
2019-06-27T12:01:32.913Z,24.45
2019-06-27T12:02:32.908Z,24.36
2019-06-27T12:03:48.215Z,24.33
2019-06-27T12:04:32.914Z,24.36
2019-06-27T12:05:32.918Z,24.40
2019-06-27T12:06:32.917Z,24.36
2019-06-27T12:07:32.917Z,24.42
2019-06-27T12:08:32.924Z,24.32
2019-06-27T12:09:32.926Z,24.39
2019-06-27T12:10:32.922Z,24.30
2019-06-27T12:11:32.925Z,24.33
2019-06-27T12:12:32.927Z,24.40
2019-06-27T12:13:32.925Z,24.29
2019-06-27T12:14:32.933Z,24.14
2019-06-27T12:15:32.934Z,24.10
2019-06-27T12:16:32.936Z,24.01
2019-06-27T12:17:32.935Z,24.21
2019-06-27T12:18:32.940Z,24.30
2019-06-27T12:19:32.943Z,24.48
2019-06-27T12:20:32.941Z,24.43
2019-06-27T12:21:32.942Z,24.43
2019-06-27T12:22:32.945Z,24.43
2019-06-27T12:23:32.949Z,24.48
2019-06-27T12:24:32.951Z,24.57
2019-06-27T12:25:32.944Z,24.68
2019-06-27T12:26:32.950Z,24.63
2019-06-27T12:27:32.957Z,24.57
2019-06-27T12:28:32.969Z,24.43
2019-06-27T12:29:32.957Z,24.57
2019-06-27T12:30:32.964Z,24.63
2019-06-27T12:31:32.960Z,24.81
2019-06-27T12:32:47.169Z,24.80
2019-06-27T12:33:32.967Z,24.85
2019-06-27T12:34:32.975Z,24.84
2019-06-27T12:35:32.968Z,24.81
2019-06-27T12:36:32.967Z,24.81
2019-06-27T12:37:32.972Z,24.99
2019-06-27T12:38:32.975Z,24.95
2019-06-27T12:39:32.997Z,24.78
2019-06-27T12:40:32.983Z,24.73
2019-06-27T12:41:32.977Z,24.73
2019-06-27T12:42:33.115Z,24.84
2019-06-27T12:43:32.996Z,25.01
2019-06-27T12:44:32.992Z,24.98
2019-06-27T12:45:32.987Z,24.96
2019-06-27T12:46:32.989Z,24.98
2019-06-27T12:47:32.992Z,24.93
2019-06-27T12:48:32.997Z,24.96
2019-06-27T12:49:50.147Z,25.13
2019-06-27T12:50:32.995Z,25.14
2019-06-27T12:51:33.002Z,25.04
2019-06-27T12:52:33.011Z,25.01
2019-06-27T12:53:33.004Z,24.93
2019-06-27T12:54:33.010Z,24.85
2019-06-27T12:55:33.008Z,24.86
2019-06-27T12:56:33.011Z,24.96
2019-06-27T12:57:33.012Z,25.16
2019-06-27T12:58:33.013Z,25.13
2019-06-27T12:59:33.021Z,25.08
2019-06-27T13:00:33.018Z,24.98
2019-06-27T13:01:33.021Z,25.08
2019-06-27T13:02:33.023Z,25.08
2019-06-27T13:03:33.030Z,25.18
2019-06-27T13:04:33.028Z,25.18
2019-06-27T13:05:33.029Z,25.23
2019-06-27T13:06:33.051Z,25.21
2019-06-27T13:07:34.229Z,25.25
2019-06-27T13:08:33.068Z,25.17
2019-06-27T13:09:33.035Z,25.22
2019-06-27T13:10:35.520Z,25.26
2019-06-27T13:11:33.043Z,25.31
2019-06-27T13:12:33.049Z,25.36
2019-06-27T13:13:33.044Z,25.41
2019-06-27T13:14:33.050Z,25.38
2019-06-27T13:15:33.045Z,25.33
2019-06-27T13:16:33.057Z,25.29
2019-06-27T13:17:33.050Z,25.21
2019-06-27T13:18:33.054Z,25.23
2019-06-27T13:19:33.057Z,25.28
2019-06-27T13:20:33.073Z,25.26
2019-06-27T13:21:33.059Z,25.16
2019-06-27T13:22:33.061Z,25.10
2019-06-27T13:23:33.069Z,25.13
2019-06-27T13:24:33.070Z,25.14
2019-06-27T13:25:34.289Z,25.13